Time;durP1;ratioP1;P1;durP2;ratioP2;P2;SDS_P1;SDS_P2;PMS_P1;PMS_P2;Temp;Humidity;BMP_temperature;BMP_pressure;BME280_temperature;BME280_humidity;BME280_pressure;Samples;Min_cycle;Max_cycle;Signal;HPM_P1;HPM_P2
2023/10/21 00:00:27;;;;;;;19.33;12.70;;;10.70;99.90;;;;;;5078206;28;20044;-81
2023/10/21 00:02:52;;;;;;;17.70;12.50;;;10.70;99.90;;;;;;5077769;28;20068;-80
2023/10/21 00:05:18;;;;;;;16.10;10.32;;;10.70;99.90;;;;;;5090355;28;20113;-80
2023/10/21 00:07:43;;;;;;;16.50;9.88;;;10.80;99.90;;;;;;5108680;28;20048;-80
2023/10/21 00:10:09;;;;;;;15.70;10.35;;;11.00;99.90;;;;;;5058189;28;20040;-80
2023/10/21 00:12:36;;;;;;;15.93;11.13;;;11.10;99.90;;;;;;5077406;28;20039;-80
2023/10/21 00:15:09;;;;;;;13.73;9.65;;;11.10;99.90;;;;;;5059917;28;20062;-80
2023/10/21 00:17:35;;;;;;;16.10;11.07;;;11.20;99.90;;;;;;5092213;28;20035;-80
2023/10/21 00:20:01;;;;;;;17.60;11.75;;;11.10;99.90;;;;;;5078049;28;20476;-80
2023/10/21 00:22:27;;;;;;;17.10;11.75;;;11.00;99.90;;;;;;5109263;28;20032;-80
2023/10/21 00:24:53;;;;;;;16.55;12.32;;;11.10;99.90;;;;;;5094648;28;20028;-80
2023/10/21 00:27:19;;;;;;;18.48;12.70;;;10.90;99.90;;;;;;5094652;28;20036;-80
2023/10/21 00:29:44;;;;;;;18.38;13.38;;;10.90;99.90;;;;;;5077863;28;20391;-80
2023/10/21 00:32:10;;;;;;;21.17;14.52;;;10.80;99.90;;;;;;5057368;28;20036;-81
2023/10/21 00:34:39;;;;;;;20.92;13.98;;;10.70;99.90;;;;;;5089449;28;20506;-79
2023/10/21 00:37:05;;;;;;;23.92;15.48;;;10.60;99.90;;;;;;5094666;28;20040;-80
2023/10/21 00:39:34;;;;;;;21.02;13.80;;;10.60;99.90;;;;;;5094407;28;20043;-80
2023/10/21 00:42:01;;;;;;;22.27;15.40;;;10.60;99.90;;;;;;5071827;28;20024;-80
2023/10/21 00:44:26;;;;;;;23.50;16.80;;;10.50;99.90;;;;;;5092833;28;20040;-80
2023/10/21 00:46:53;;;;;;;24.40;16.13;;;10.50;99.90;;;;;;5073527;28;20063;-81
2023/10/21 00:49:19;;;;;;;23.15;16.92;;;10.40;99.90;;;;;;5074246;28;20040;-79
2023/10/21 00:51:47;;;;;;;22.42;15.63;;;10.40;99.90;;;;;;5076172;28;20043;-79
2023/10/21 00:54:14;;;;;;;25.55;16.63;;;10.40;99.90;;;;;;5063949;28;20522;-80
2023/10/21 00:56:40;;;;;;;22.77;16.55;;;10.30;99.90;;;;;;5076871;28;20066;-80
2023/10/21 00:59:07;;;;;;;21.85;15.57;;;10.30;99.90;;;;;;5077339;28;20189;-80
2023/10/21 01:01:34;;;;;;;27.95;17.17;;;10.30;99.90;;;;;;5076462;28;20085;-79
2023/10/21 01:04:02;;;;;;;24.55;17.02;;;10.30;99.90;;;;;;5075481;28;20032;-80
2023/10/21 01:06:27;;;;;;;27.23;16.92;;;10.30;99.90;;;;;;5076105;28;20121;-80
2023/10/21 01:08:53;;;;;;;27.60;17.95;;;10.20;99.90;;;;;;5077187;28;20063;-80
2023/10/21 01:11:19;;;;;;;26.15;17.00;;;10.20;99.90;;;;;;5093731;28;20032;-80
2023/10/21 01:13:44;;;;;;;46.25;19.35;;;10.20;99.90;;;;;;5076674;28;20043;-79
2023/10/21 01:16:10;;;;;;;27.30;17.50;;;10.20;99.90;;;;;;5092574;28;20043;-79
2023/10/21 01:18:38;;;;;;;26.27;17.35;;;10.10;99.90;;;;;;5059137;28;20046;-80
2023/10/21 01:21:03;;;;;;;38.00;17.92;;;10.10;99.90;;;;;;5093814;28;20085;-80
2023/10/21 01:23:30;;;;;;;26.92;17.45;;;10.10;99.90;;;;;;5056068;28;20036;-79
2023/10/21 01:25:56;;;;;;;54.88;19.33;;;10.00;99.90;;;;;;5090784;28;20507;-79
2023/10/21 01:28:21;;;;;;;24.35;16.83;;;10.10;99.90;;;;;;5059925;28;20040;-79
2023/10/21 01:30:47;;;;;;;63.17;18.25;;;10.10;99.90;;;;;;5059231;28;20081;-80
2023/10/21 01:33:13;;;;;;;44.85;17.05;;;10.10;99.90;;;;;;5072299;28;20081;-79
2023/10/21 01:35:39;;;;;;;27.27;16.23;;;10.10;99.90;;;;;;5079706;28;20044;-79
2023/10/21 01:38:04;;;;;;;36.13;16.42;;;10.10;99.90;;;;;;5093085;28;20436;-81
2023/10/21 01:40:30;;;;;;;56.80;17.48;;;10.00;99.90;;;;;;5093098;28;20035;-80
2023/10/21 01:42:56;;;;;;;26.38;15.30;;;10.00;99.90;;;;;;5062612;28;20067;-80
2023/10/21 01:45:23;;;;;;;35.60;15.75;;;10.00;99.90;;;;;;5092100;28;20040;-80
2023/10/21 01:47:48;;;;;;;21.63;15.38;;;10.00;99.90;;;;;;5065461;28;20069;-79
2023/10/21 01:50:14;;;;;;;21.65;14.15;;;10.00;99.90;;;;;;5092759;28;20040;-80
2023/10/21 01:52:40;;;;;;;20.00;13.85;;;10.00;99.90;;;;;;5075519;28;20044;-80
2023/10/21 01:55:08;;;;;;;19.95;14.30;;;10.00;99.90;;;;;;5055117;28;20044;-80
2023/10/21 01:57:34;;;;;;;22.25;14.98;;;10.10;99.90;;;;;;5089973;28;20059;-80
2023/10/21 02:00:01;;;;;;;19.95;14.65;;;10.10;99.90;;;;;;5075276;28;20044;-79
2023/10/21 02:02:28;;;;;;;23.67;16.02;;;10.10;99.90;;;;;;5091978;28;20545;-80
2023/10/21 02:04:54;;;;;;;30.27;16.90;;;10.00;99.90;;;;;;5075720;28;20044;-80
2023/10/21 02:07:19;;;;;;;23.73;15.82;;;10.00;99.90;;;;;;5077457;28;20044;-80
2023/10/21 02:09:45;;;;;;;24.50;16.08;;;10.00;99.90;;;;;;5055633;28;20045;-80
2023/10/21 02:12:11;;;;;;;24.52;16.98;;;10.00;99.90;;;;;;5061292;28;20036;-80
2023/10/21 02:14:37;;;;;;;20.77;14.20;;;10.00;99.90;;;;;;5071902;28;20040;-80
2023/10/21 02:17:02;;;;;;;20.70;14.60;;;10.00;99.90;;;;;;5107249;28;20089;-80
2023/10/21 02:19:28;;;;;;;20.90;14.90;;;10.10;99.90;;;;;;5108655;28;20093;-80
2023/10/21 02:21:54;;;;;;;20.80;14.55;;;10.10;99.90;;;;;;5074617;28;20101;-79
2023/10/21 02:24:19;;;;;;;18.45;12.05;;;10.10;99.90;;;;;;5092332;28;20377;-79
2023/10/21 02:26:45;;;;;;;20.27;13.77;;;10.20;99.90;;;;;;5091173;28;20059;-80
2023/10/21 02:29:11;;;;;;;20.10;13.95;;;10.10;99.90;;;;;;5071892;28;20037;-79
2023/10/21 02:31:37;;;;;;;22.25;13.65;;;10.10;99.90;;;;;;5081885;28;20037;-79
2023/10/21 02:34:03;;;;;;;18.77;13.00;;;10.20;99.90;;;;;;5087522;28;20032;-79
2023/10/21 02:36:28;;;;;;;19.05;13.60;;;10.10;99.90;;;;;;5069660;28;20047;-80
2023/10/21 02:38:54;;;;;;;21.10;13.68;;;10.10;99.90;;;;;;5088460;28;20036;-80
2023/10/21 02:41:20;;;;;;;19.13;14.10;;;10.00;99.90;;;;;;5069976;28;20036;-79
2023/10/21 02:43:45;;;;;;;19.40;13.98;;;10.00;99.90;;;;;;5074321;28;20480;-79
2023/10/21 02:46:13;;;;;;;21.92;14.90;;;10.00;99.90;;;;;;5044631;28;20499;-79
2023/10/21 02:48:40;;;;;;;23.33;14.82;;;9.90;99.90;;;;;;5080059;28;20042;-80
2023/10/21 02:51:13;;;;;;;19.98;13.75;;;9.90;99.90;;;;;;5053579;28;20044;-79
2023/10/21 02:53:39;;;;;;;21.98;14.82;;;9.90;99.90;;;;;;5054929;28;20040;-79
2023/10/21 02:56:09;;;;;;;20.77;14.50;;;9.90;99.90;;;;;;5091258;28;20086;-79
2023/10/21 02:58:35;;;;;;;20.17;13.82;;;9.90;99.90;;;;;;5084175;28;20040;-80
2023/10/21 03:01:12;;;;;;;21.73;14.82;;;9.80;99.90;;;;;;5052346;28;20037;-80
2023/10/21 03:03:37;;;;;;;22.48;15.68;;;9.80;99.90;;;;;;5100632;28;20488;-80
2023/10/21 03:06:03;;;;;;;26.02;15.75;;;9.80;99.90;;;;;;5057189;28;20089;-80
2023/10/21 03:08:29;;;;;;;22.08;15.18;;;9.80;99.90;;;;;;5089443;28;20455;-79
2023/10/21 03:10:55;;;;;;;22.63;16.65;;;9.80;99.90;;;;;;5079238;28;20097;-80
2023/10/21 03:13:20;;;;;;;23.48;15.65;;;9.80;99.90;;;;;;5040640;28;20047;-80
2023/10/21 03:15:46;;;;;;;24.42;15.45;;;9.80;99.90;;;;;;5087199;28;20062;-80
2023/10/21 03:18:12;;;;;;;23.13;15.23;;;9.90;99.90;;;;;;5087937;28;20036;-80
2023/10/21 03:20:38;;;;;;;24.58;16.88;;;9.90;99.90;;;;;;5076715;28;20038;-80
2023/10/21 03:23:04;;;;;;;24.23;16.38;;;9.80;99.90;;;;;;5112201;28;20111;-80
2023/10/21 03:25:30;;;;;;;21.60;14.40;;;9.90;99.90;;;;;;5058813;28;20042;-80
2023/10/21 03:27:56;;;;;;;22.30;15.30;;;9.80;99.90;;;;;;5077390;28;20118;-79
2023/10/21 03:30:22;;;;;;;23.75;15.75;;;9.80;99.90;;;;;;5074186;28;20047;-80
2023/10/21 03:32:47;;;;;;;24.25;15.50;;;9.80;99.90;;;;;;5107463;28;20044;-80
2023/10/21 03:35:13;;;;;;;21.85;14.52;;;9.80;99.90;;;;;;5088892;28;20052;-80
2023/10/21 03:37:38;;;;;;;24.80;15.45;;;9.80;99.90;;;;;;5061884;28;20044;-79
2023/10/21 03:40:05;;;;;;;23.60;15.88;;;9.80;99.90;;;;;;5061231;28;20036;-80
2023/10/21 03:42:31;;;;;;;24.50;16.13;;;9.80;99.90;;;;;;5065618;28;20365;-80
2023/10/21 03:44:57;;;;;;;23.70;14.82;;;9.80;99.90;;;;;;5059486;28;20039;-79
2023/10/21 03:47:22;;;;;;;21.13;14.40;;;9.80;99.90;;;;;;5060364;28;20032;-79
2023/10/21 03:49:48;;;;;;;26.05;15.80;;;9.80;99.90;;;;;;5094340;28;20134;-80
2023/10/21 03:52:14;;;;;;;19.65;14.18;;;9.80;99.90;;;;;;5064048;28;20040;-79
2023/10/21 03:54:39;;;;;;;20.50;13.63;;;9.80;99.90;;;;;;5077850;28;20403;-80
2023/10/21 03:57:05;;;;;;;20.75;14.43;;;9.80;99.90;;;;;;5079926;28;20443;-80
2023/10/21 03:59:31;;;;;;;28.15;16.02;;;9.90;99.90;;;;;;5100510;28;20036;-80
2023/10/21 04:01:57;;;;;;;19.20;13.73;;;9.90;99.90;;;;;;5108264;28;20044;-79
2023/10/21 04:04:23;;;;;;;23.80;15.93;;;9.80;99.90;;;;;;5075552;28;20077;-80
2023/10/21 04:06:49;;;;;;;22.27;14.95;;;9.80;99.90;;;;;;5084305;28;20036;-80
2023/10/21 04:09:14;;;;;;;20.80;14.90;;;9.90;99.90;;;;;;5092863;28;21251;-80
2023/10/21 04:11:41;;;;;;;20.00;14.10;;;9.80;99.90;;;;;;5107984;28;20405;-80
2023/10/21 04:14:07;;;;;;;20.05;14.13;;;9.80;99.90;;;;;;5075769;28;20110;-79
2023/10/21 04:16:32;;;;;;;22.80;14.35;;;9.80;99.90;;;;;;5099908;28;20045;-80
2023/10/21 04:18:58;;;;;;;20.67;14.35;;;9.80;99.90;;;;;;5073221;28;20492;-80
2023/10/21 04:21:25;;;;;;;23.27;13.77;;;9.80;99.90;;;;;;5109319;28;20089;-80
2023/10/21 04:23:51;;;;;;;19.83;13.73;;;9.80;99.90;;;;;;5076019;28;20032;-79
2023/10/21 04:26:16;;;;;;;18.33;13.25;;;9.80;99.90;;;;;;5090403;28;20043;-80
2023/10/21 04:28:42;;;;;;;22.83;13.73;;;9.80;99.90;;;;;;5060588;28;20047;-80
2023/10/21 04:31:08;;;;;;;19.30;13.60;;;9.80;99.90;;;;;;5075615;28;20119;-80
2023/10/21 04:33:34;;;;;;;19.88;13.07;;;9.80;99.90;;;;;;5065722;28;20054;-80
2023/10/21 04:36:00;;;;;;;17.85;13.55;;;9.80;99.90;;;;;;5076285;28;20040;-80
2023/10/21 04:38:26;;;;;;;19.88;13.48;;;9.70;99.90;;;;;;5057957;28;20044;-80
2023/10/21 04:40:51;;;;;;;21.83;14.40;;;9.80;99.90;;;;;;5074413;28;20039;-80
2023/10/21 04:43:17;;;;;;;19.38;12.90;;;9.70;99.90;;;;;;5074891;28;20127;-80
2023/10/21 04:45:42;;;;;;;19.80;12.98;;;9.80;99.90;;;;;;5073990;28;20036;-80
2023/10/21 04:48:08;;;;;;;19.20;12.77;;;9.70;99.90;;;;;;5072370;28;20036;-80
2023/10/21 04:50:34;;;;;;;17.38;12.65;;;9.70;99.90;;;;;;5075641;28;20056;-80
2023/10/21 04:52:59;;;;;;;17.05;11.95;;;9.80;99.90;;;;;;5093442;28;20036;-80
2023/10/21 04:55:25;;;;;;;19.13;11.93;;;9.80;99.90;;;;;;5069624;28;20114;-80
2023/10/21 04:57:51;;;;;;;16.42;11.20;;;9.80;99.90;;;;;;5108536;28;20048;-80
2023/10/21 05:00:17;;;;;;;17.38;11.70;;;9.80;99.90;;;;;;5087815;28;20037;-80
2023/10/21 05:02:42;;;;;;;17.17;11.07;;;9.80;99.90;;;;;;5044871;28;20072;-80
2023/10/21 05:05:09;;;;;;;17.05;11.68;;;9.80;99.90;;;;;;5072245;28;20036;-80
2023/10/21 05:07:34;;;;;;;17.02;11.50;;;9.80;99.90;;;;;;5076989;28;20032;-80
2023/10/21 05:10:00;;;;;;;16.83;11.30;;;9.70;99.90;;;;;;5061969;28;20082;-80
2023/10/21 05:12:26;;;;;;;17.33;11.13;;;9.80;99.90;;;;;;5075522;28;20047;-80
2023/10/21 05:14:52;;;;;;;16.80;11.27;;;9.80;99.90;;;;;;5104988;28;20052;-80
2023/10/21 05:17:17;;;;;;;16.58;10.90;;;9.80;99.90;;;;;;5080147;28;20044;-79
2023/10/21 05:19:43;;;;;;;18.15;11.40;;;9.70;99.90;;;;;;5082556;28;20118;-80
2023/10/21 05:22:08;;;;;;;17.35;11.18;;;9.80;99.90;;;;;;5109928;28;20113;-80
2023/10/21 05:24:34;;;;;;;15.63;11.38;;;9.80;99.90;;;;;;5090824;28;20044;-79
2023/10/21 05:27:00;;;;;;;15.65;11.10;;;9.80;99.90;;;;;;5085363;28;20032;-79
2023/10/21 05:29:25;;;;;;;16.80;11.23;;;9.80;99.90;;;;;;5075185;28;20048;-79
2023/10/21 05:31:51;;;;;;;19.83;10.73;;;9.70;99.90;;;;;;5093120;28;20108;-79
2023/10/21 05:34:19;;;;;;;15.90;10.07;;;9.70;99.90;;;;;;5090206;28;20036;-79
2023/10/21 05:36:46;;;;;;;16.23;10.43;;;9.70;99.90;;;;;;5099787;28;20058;-80
2023/10/21 05:39:12;;;;;;;14.27;9.85;;;9.70;99.90;;;;;;5057748;28;20381;-80
2023/10/21 05:41:39;;;;;;;14.50;9.95;;;9.70;99.90;;;;;;5059333;28;20036;-80
2023/10/21 05:44:05;;;;;;;14.13;9.88;;;9.70;99.90;;;;;;5073744;28;20036;-80
2023/10/21 05:46:31;;;;;;;12.88;8.82;;;9.70;99.90;;;;;;5075099;28;20047;-80
2023/10/21 05:48:56;;;;;;;13.25;9.35;;;9.80;99.90;;;;;;5054632;28;20029;-80
2023/10/21 05:51:22;;;;;;;20.63;9.32;;;9.70;99.90;;;;;;5059796;28;20472;-80
2023/10/21 05:53:48;;;;;;;15.13;9.32;;;9.80;99.90;;;;;;5083419;28;20028;-79
2023/10/21 05:56:15;;;;;;;14.48;9.43;;;9.80;99.90;;;;;;5068552;28;20028;-80
2023/10/21 05:58:41;;;;;;;16.02;9.95;;;9.80;99.90;;;;;;5074852;28;20052;-79
2023/10/21 06:01:08;;;;;;;14.10;9.05;;;9.80;99.90;;;;;;5074429;28;20469;-79
2023/10/21 06:03:35;;;;;;;18.55;10.15;;;9.90;99.90;;;;;;5076078;28;20445;-80
2023/10/21 06:06:01;;;;;;;16.27;10.13;;;9.90;99.90;;;;;;5055154;28;20040;-79
2023/10/21 06:08:31;;;;;;;14.32;8.13;;;9.90;99.90;;;;;;5055808;28;20502;-80
2023/10/21 06:10:57;;;;;;;13.13;8.40;;;9.90;99.90;;;;;;5055795;28;20036;-80
2023/10/21 06:13:24;;;;;;;14.35;8.63;;;10.00;99.90;;;;;;5069883;28;20122;-79
2023/10/21 06:15:51;;;;;;;13.88;8.68;;;10.20;99.90;;;;;;5086786;28;20044;-79
2023/10/21 06:18:17;;;;;;;13.85;8.23;;;10.20;99.90;;;;;;5058927;28;20123;-79
2023/10/21 06:20:48;;;;;;;15.00;9.48;;;10.30;99.90;;;;;;5073726;28;20124;-80
2023/10/21 06:23:14;;;;;;;14.18;7.95;;;10.40;99.90;;;;;;5050663;28;20082;-81
2023/10/21 06:25:40;;;;;;;14.95;9.20;;;10.50;99.90;;;;;;5092438;28;20048;-82
2023/10/21 06:28:05;;;;;;;10.30;6.95;;;10.50;99.90;;;;;;5058663;28;20108;-82
2023/10/21 06:30:31;;;;;;;11.40;7.63;;;10.70;99.90;;;;;;5058820;28;20431;-82
2023/10/21 06:32:57;;;;;;;12.88;7.90;;;10.90;99.90;;;;;;5059346;28;20142;-81
2023/10/21 06:35:22;;;;;;;14.65;7.63;;;10.90;99.90;;;;;;5074130;28;20042;-82
2023/10/21 06:37:49;;;;;;;13.63;8.57;;;11.00;99.90;;;;;;5075262;28;20484;-82
2023/10/21 06:40:15;;;;;;;11.32;6.82;;;10.90;99.90;;;;;;5075414;28;20047;-82
2023/10/21 06:42:40;;;;;;;12.80;7.53;;;11.00;99.90;;;;;;5091050;28;20040;-81
2023/10/21 06:45:06;;;;;;;12.60;6.82;;;11.00;99.90;;;;;;5075372;28;20035;-82
2023/10/21 06:47:34;;;;;;;12.00;6.10;;;11.10;99.90;;;;;;5092303;28;20484;-82
2023/10/21 06:50:00;;;;;;;13.45;7.75;;;11.20;99.90;;;;;;5075625;28;20036;-82
2023/10/21 06:52:26;;;;;;;12.27;7.93;;;11.20;99.90;;;;;;5075130;28;20495;-82
2023/10/21 06:54:53;;;;;;;10.80;6.72;;;11.20;99.90;;;;;;5089596;28;20044;-82
2023/10/21 06:57:21;;;;;;;10.02;7.03;;;11.20;99.90;;;;;;5091684;28;20102;-81
2023/10/21 06:59:48;;;;;;;12.13;6.88;;;11.30;99.90;;;;;;5091931;28;20044;-82
2023/10/21 07:02:14;;;;;;;12.43;7.35;;;11.30;99.90;;;;;;5075396;28;20384;-82
2023/10/21 07:04:39;;;;;;;14.43;8.02;;;11.30;99.90;;;;;;5073344;28;20032;-80
2023/10/21 07:07:05;;;;;;;10.80;7.10;;;11.30;99.90;;;;;;5074005;28;20100;-82
2023/10/21 07:09:30;;;;;;;11.52;7.43;;;11.30;99.90;;;;;;5075126;28;20473;-82
2023/10/21 07:11:56;;;;;;;12.10;8.18;;;11.30;99.90;;;;;;5075221;28;20040;-82
2023/10/21 07:14:22;;;;;;;13.90;7.15;;;11.30;99.90;;;;;;5072298;28;20181;-82
2023/10/21 07:16:47;;;;;;;11.02;6.30;;;11.30;99.90;;;;;;5058171;28;20040;-82
2023/10/21 07:19:13;;;;;;;13.05;6.75;;;11.50;99.90;;;;;;5074736;28;20392;-82
2023/10/21 07:21:38;;;;;;;11.00;6.80;;;11.50;99.90;;;;;;5075040;28;20068;-82
2023/10/21 07:24:05;;;;;;;12.23;7.32;;;11.60;99.90;;;;;;5075253;28;20039;-82
2023/10/21 07:26:30;;;;;;;13.35;7.53;;;11.50;99.90;;;;;;5073510;28;20112;-82
2023/10/21 07:28:56;;;;;;;13.32;7.72;;;11.50;99.90;;;;;;5038213;28;20132;-83
2023/10/21 07:31:21;;;;;;;11.32;7.05;;;11.50;99.90;;;;;;5071546;28;20098;-82
2023/10/21 07:33:50;;;;;;;11.85;7.22;;;11.50;99.90;;;;;;5071443;28;20400;-82
2023/10/21 07:36:16;;;;;;;11.50;7.18;;;11.60;99.90;;;;;;5077897;28;20123;-82
2023/10/21 07:38:42;;;;;;;13.27;7.30;;;11.60;99.90;;;;;;5073544;28;20465;-82
2023/10/21 07:41:12;;;;;;;13.98;7.95;;;11.60;99.90;;;;;;5074823;28;20046;-82
2023/10/21 07:43:38;;;;;;;16.20;7.65;;;11.60;99.90;;;;;;5091581;28;20537;-82
2023/10/21 07:46:03;;;;;;;11.90;7.70;;;11.70;99.90;;;;;;5073055;28;20040;-82
2023/10/21 07:48:29;;;;;;;14.35;6.97;;;11.60;99.90;;;;;;5074698;28;20071;-82
2023/10/21 07:50:55;;;;;;;15.95;7.28;;;11.70;99.90;;;;;;5074670;28;20040;-82
2023/10/21 07:53:21;;;;;;;13.02;7.68;;;11.70;99.90;;;;;;5074553;28;20044;-82
2023/10/21 07:55:50;;;;;;;10.38;6.47;;;11.70;99.90;;;;;;5088278;28;20040;-81
2023/10/21 07:58:16;;;;;;;10.68;6.60;;;11.80;99.90;;;;;;5057042;28;20044;-81
2023/10/21 08:00:42;;;;;;;12.30;7.57;;;11.90;99.90;;;;;;5074011;28;20044;-81
2023/10/21 08:03:08;;;;;;;13.10;7.13;;;11.90;99.90;;;;;;5057821;28;20082;-81
2023/10/21 08:05:33;;;;;;;12.38;7.97;;;12.00;99.90;;;;;;5093196;28;20028;-81
2023/10/21 08:07:59;;;;;;;12.27;7.28;;;12.10;99.90;;;;;;5059798;28;20046;-81
2023/10/21 08:10:25;;;;;;;12.93;7.47;;;12.20;99.90;;;;;;5059860;28;20130;-81
2023/10/21 08:12:50;;;;;;;12.88;7.80;;;12.40;99.90;;;;;;5060636;28;20090;-82
2023/10/21 08:15:16;;;;;;;12.25;7.35;;;12.40;99.90;;;;;;5061421;28;20036;-81
2023/10/21 08:17:42;;;;;;;10.65;6.15;;;12.60;99.90;;;;;;5058716;28;20169;-81
2023/10/21 08:20:08;;;;;;;10.98;5.88;;;12.80;99.90;;;;;;5077292;28;20074;-81
2023/10/21 08:22:34;;;;;;;11.43;6.97;;;12.90;99.90;;;;;;5061298;28;20036;-81
2023/10/21 08:25:00;;;;;;;11.02;7.00;;;13.00;99.90;;;;;;5111743;28;20036;-81
2023/10/21 08:27:26;;;;;;;11.77;7.05;;;13.10;99.90;;;;;;5076136;28;20420;-81
2023/10/21 08:29:53;;;;;;;11.63;8.10;;;13.10;99.90;;;;;;5094587;28;20071;-81
2023/10/21 08:32:19;;;;;;;13.07;6.43;;;13.10;99.90;;;;;;5094652;28;20105;-81
2023/10/21 08:34:45;;;;;;;10.82;7.43;;;13.20;99.90;;;;;;5094616;28;20079;-81
2023/10/21 08:37:10;;;;;;;11.02;6.45;;;13.30;99.90;;;;;;5059279;28;20035;-81
2023/10/21 08:39:37;;;;;;;12.52;6.63;;;13.20;99.90;;;;;;5094642;28;20476;-81
2023/10/21 08:42:03;;;;;;;9.93;6.55;;;13.30;99.90;;;;;;5082629;28;20043;-82
2023/10/21 08:44:32;;;;;;;13.45;7.03;;;13.50;99.90;;;;;;5111395;28;20040;-81
2023/10/21 08:46:59;;;;;;;11.68;7.18;;;13.50;99.90;;;;;;5075643;28;20079;-82
2023/10/21 08:49:24;;;;;;;9.98;6.38;;;13.50;99.90;;;;;;5091970;28;20043;-82
2023/10/21 08:51:53;;;;;;;12.63;7.10;;;13.60;99.90;;;;;;5065736;28;20051;-82
2023/10/21 08:54:19;;;;;;;12.45;6.97;;;13.70;99.90;;;;;;5060582;28;20046;-82
2023/10/21 08:56:45;;;;;;;7.57;4.47;;;13.70;99.90;;;;;;5056729;28;20067;-83
2023/10/21 08:59:12;;;;;;;12.75;7.03;;;13.90;99.90;;;;;;5085831;28;20408;-83
2023/10/21 09:01:38;;;;;;;13.95;6.45;;;14.20;99.90;;;;;;5077514;28;20396;-82
2023/10/21 09:04:05;;;;;;;8.85;5.78;;;14.20;99.90;;;;;;5093131;28;20043;-82
2023/10/21 09:06:31;;;;;;;8.98;5.45;;;14.10;99.90;;;;;;5059770;28;20034;-82
2023/10/21 09:08:56;;;;;;;8.40;5.70;;;14.30;99.90;;;;;;5068537;28;20504;-83
2023/10/21 09:11:29;;;;;;;12.50;4.82;;;14.50;99.90;;;;;;5058025;28;20139;-82
2023/10/21 09:14:01;;;;;;;13.15;5.65;;;14.60;99.90;;;;;;5053369;28;20079;-83
2023/10/21 09:16:28;;;;;;;;;;;14.80;99.90;;;;;;5101402;28;20048;-83
2023/10/21 09:19:03;;;;;;;10.63;5.38;;;14.80;99.90;;;;;;5055055;28;20693;-83
2023/10/21 09:21:36;;;;;;;9.07;4.47;;;14.80;99.90;;;;;;5091215;28;20496;-83
2023/10/21 09:24:24;;;;;;;10.50;5.13;;;14.80;99.90;;;;;;5075789;28;20067;-84
2023/10/21 09:26:51;;;;;;;11.63;5.82;;;14.90;99.90;;;;;;5072621;28;20031;-83
2023/10/21 09:29:19;;;;;;;10.73;4.53;;;14.80;99.90;;;;;;5072639;28;20186;-83
2023/10/21 09:31:52;;;;;;;9.63;4.93;;;14.90;99.90;;;;;;5109048;28;20416;-84
2023/10/21 09:34:30;;;;;;;10.13;4.90;;;14.80;99.90;;;;;;5057635;28;20032;-83
2023/10/21 09:36:56;;;;;;;8.98;4.78;;;14.80;99.90;;;;;;5058534;28;20032;-84
2023/10/21 09:39:24;;;;;;;10.48;4.50;;;14.80;99.90;;;;;;5074993;28;20508;-83
2023/10/21 09:41:49;;;;;;;13.57;4.82;;;14.80;99.90;;;;;;5085344;28;20050;-83
2023/10/21 09:44:16;;;;;;;9.57;3.63;;;14.80;99.90;;;;;;5054055;28;20032;-84
2023/10/21 09:46:46;;;;;;;8.35;3.40;;;14.80;99.90;;;;;;5063803;28;20484;-84
2023/10/21 09:49:13;;;;;;;10.95;3.80;;;14.70;99.90;;;;;;5063496;28;20040;-83
2023/10/21 09:52:09;;;;;;;9.32;3.50;;;14.80;99.90;;;;;;5084249;28;20031;-84
2023/10/21 09:55:07;;;;;;;7.93;3.20;;;14.70;99.90;;;;;;5061389;28;20044;-85
2023/10/21 09:57:37;;;;;;;6.68;3.20;;;14.70;99.90;;;;;;5057553;28;20063;-85
2023/10/21 10:00:08;;;;;;;8.57;3.10;;;14.70;99.90;;;;;;5078041;28;20040;-84
2023/10/21 10:02:40;;;;;;;8.23;3.28;;;14.60;99.90;;;;;;5090766;28;20161;-84
2023/10/21 10:05:07;;;;;;;7.75;2.95;;;14.80;99.90;;;;;;5052662;28;20059;-85
2023/10/21 10:07:38;;;;;;;9.15;3.20;;;14.70;99.90;;;;;;5056369;28;20173;-85
2023/10/21 10:10:06;;;;;;;7.57;2.95;;;14.60;99.90;;;;;;5072000;28;20040;-85
2023/10/21 10:12:40;;;;;;;8.80;2.90;;;14.50;99.90;;;;;;5073788;28;20497;-84
2023/10/21 10:15:40;;;;;;;9.65;2.92;;;14.50;99.90;;;;;;5071938;28;20404;-83
2023/10/21 10:18:25;;;;;;;5.40;2.20;;;14.50;99.90;;;;;;5058257;28;20044;-83
2023/10/21 10:20:52;;;;;;;5.90;2.03;;;14.50;99.90;;;;;;5107881;28;20039;-82
2023/10/21 10:23:24;;;;;;;3.75;1.40;;;14.50;99.90;;;;;;5057004;28;20036;-85
2023/10/21 10:25:51;;;;;;;5.25;1.80;;;14.50;99.90;;;;;;5057797;28;20042;-82
2023/10/21 10:28:23;;;;;;;3.15;1.45;;;14.50;99.90;;;;;;5071709;28;20242;-83
2023/10/21 10:30:49;;;;;;;;;;;14.60;99.90;;;;;;5075325;28;20496;-82
2023/10/21 10:33:35;;;;;;;3.85;1.40;;;14.50;99.90;;;;;;5081299;28;20316;-82
2023/10/21 10:36:06;;;;;;;3.25;1.27;;;14.50;99.90;;;;;;5043608;28;20048;-82
2023/10/21 10:38:34;;;;;;;2.67;1.42;;;14.50;99.90;;;;;;5056973;28;20404;-84
2023/10/21 10:41:07;;;;;;;4.85;1.52;;;14.50;99.90;;;;;;5073307;28;20039;-83
2023/10/21 10:43:33;;;;;;;5.45;1.77;;;14.50;99.90;;;;;;5081185;28;20561;-82
2023/10/21 10:46:02;;;;;;;2.40;1.30;;;14.40;99.90;;;;;;5067442;28;20039;-83
2023/10/21 10:48:29;;;;;;;1.73;0.95;;;14.50;99.90;;;;;;5058283;28;20491;-83
2023/10/21 10:51:00;;;;;;;3.67;0.98;;;14.60;99.90;;;;;;5069508;28;20042;-83
2023/10/21 10:53:27;;;;;;;4.07;0.98;;;14.50;99.90;;;;;;5074642;28;20089;-83
2023/10/21 10:55:56;;;;;;;1.23;0.70;;;14.50;99.90;;;;;;5082063;28;20508;-84
2023/10/21 10:58:26;;;;;;;2.30;0.90;;;14.50;99.90;;;;;;5053145;28;20056;-84
2023/10/21 11:00:52;;;;;;;2.60;1.10;;;14.50;99.90;;;;;;5050568;28;20044;-84
2023/10/21 11:03:27;;;;;;;1.23;0.93;;;14.50;99.90;;;;;;5106294;28;20063;-84
2023/10/21 11:05:55;;;;;;;2.47;0.88;;;14.40;99.90;;;;;;5055065;28;20032;-84
2023/10/21 11:08:21;;;;;;;1.85;0.88;;;14.50;99.90;;;;;;5054165;28;20044;-84
2023/10/21 11:10:47;;;;;;;2.53;1.00;;;14.40;99.90;;;;;;5090177;28;20036;-85
2023/10/21 11:13:13;;;;;;;1.98;0.80;;;14.50;99.90;;;;;;5074945;28;20036;-83
2023/10/21 11:15:44;;;;;;;1.83;0.90;;;14.50;99.90;;;;;;5055908;28;20044;-85
2023/10/21 11:18:13;;;;;;;3.38;0.85;;;14.50;99.90;;;;;;5057207;28;20036;-85
2023/10/21 11:20:47;;;;;;;2.15;0.88;;;14.50;99.90;;;;;;5073254;28;20032;-84
2023/10/21 11:23:12;;;;;;;2.60;0.90;;;14.60;99.90;;;;;;5104287;28;20518;-85
2023/10/21 11:25:40;;;;;;;2.97;1.05;;;14.60;99.90;;;;;;5071706;28;20036;-84
2023/10/21 11:28:06;;;;;;;2.58;1.00;;;14.60;99.90;;;;;;5078875;28;20082;-84
2023/10/21 11:30:33;;;;;;;2.97;1.20;;;14.60;99.90;;;;;;5055838;28;20067;-84
2023/10/21 11:33:09;;;;;;;3.17;0.90;;;14.50;99.90;;;;;;5045716;28;20052;-84
2023/10/21 11:35:39;;;;;;;2.15;0.80;;;14.50;99.90;;;;;;5054881;28;20032;-84
2023/10/21 11:38:05;;;;;;;1.65;0.80;;;14.50;99.90;;;;;;5054747;28;20044;-83
2023/10/21 11:40:33;;;;;;;3.42;0.95;;;14.40;99.90;;;;;;5078806;28;20040;-83
2023/10/21 11:43:00;;;;;;;4.05;0.80;;;14.30;99.90;;;;;;5061840;28;20040;-84
2023/10/21 11:45:30;;;;;;;3.08;0.77;;;14.50;99.90;;;;;;5061250;28;20043;-84
2023/10/21 11:47:57;;;;;;;1.70;0.65;;;14.40;99.90;;;;;;5066336;28;20059;-84
2023/10/21 11:50:24;;;;;;;2.78;0.70;;;14.40;99.90;;;;;;5089697;28;20043;-84
2023/10/21 11:52:51;;;;;;;1.45;0.60;;;14.50;99.90;;;;;;5057917;28;20512;-84
2023/10/21 11:55:38;;;;;;;1.85;0.65;;;14.50;99.90;;;;;;5059625;28;20523;-83
2023/10/21 12:35:25;;;;;;;3.03;0.80;;;14.30;99.90;;;;;;5061338;28;20147;-83
2023/10/21 12:45:54;;;;;;;1.27;0.68;;;14.30;99.90;;;;;;5063915;28;20038;-82
2023/10/21 12:48:19;;;;;;;2.05;0.90;;;14.30;99.90;;;;;;5107395;28;20043;-84
2023/10/21 12:50:49;;;;;;;4.05;1.10;;;14.30;99.90;;;;;;5110563;28;20403;-84
2023/10/21 12:53:16;;;;;;;3.38;1.00;;;14.30;99.90;;;;;;5071811;28;20047;-84
2023/10/21 12:55:43;;;;;;;2.28;1.00;;;14.30;99.90;;;;;;5067454;28;20492;-84
2023/10/21 12:58:09;;;;;;;2.60;1.05;;;14.30;99.90;;;;;;5096214;28;20048;-85
2023/10/21 13:00:35;;;;;;;3.08;1.48;;;14.40;99.90;;;;;;5085870;28;20552;-84
2023/10/21 13:03:01;;;;;;;1.25;0.77;;;14.40;99.90;;;;;;5060536;28;20072;-85
2023/10/21 13:05:27;;;;;;;1.58;0.80;;;14.70;99.90;;;;;;5076626;28;20127;-85
2023/10/21 13:07:52;;;;;;;3.15;0.75;;;14.50;99.90;;;;;;5093348;28;20093;-85
2023/10/21 13:10:18;;;;;;;2.97;0.90;;;14.40;99.90;;;;;;5067035;28;20032;-85
2023/10/21 13:12:46;;;;;;;4.28;0.90;;;14.40;99.90;;;;;;5077044;28;20391;-85
2023/10/21 13:15:12;;;;;;;3.08;0.88;;;14.40;99.90;;;;;;5071908;28;20044;-79
2023/10/21 13:17:38;;;;;;;3.63;0.82;;;14.40;99.90;;;;;;5058208;28;20050;-79
2023/10/21 13:20:05;;;;;;;3.33;0.70;;;14.40;99.90;;;;;;5076789;28;20373;-79
2023/10/21 13:22:32;;;;;;;1.83;0.77;;;14.40;99.90;;;;;;5075411;28;20048;-80